Time;durP1;ratioP1;P1;durP2;ratioP2;P2;SDS_P1;SDS_P2;PMS_P1;PMS_P2;Temp;Humidity;BMP_temperature;BMP_pressure;BME280_temperature;BME280_humidity;BME280_pressure;Samples;Min_cycle;Max_cycle;Signal;HPM_P1;HPM_P2
2022/05/19 00:01:06;;;;;;;22.13;13.18;;;16.30;99.90;;;;;;4966038;28;26499;-66
2022/05/19 00:03:37;;;;;;;21.67;13.38;;;16.30;99.90;;;;;;4950614;28;208212;-66
2022/05/19 00:06:06;;;;;;;21.40;13.90;;;16.30;99.90;;;;;;4931949;28;276661;-66
2022/05/19 00:08:32;;;;;;;26.85;15.88;;;16.30;99.90;;;;;;4955329;28;218183;-66
2022/05/19 00:11:03;;;;;;;27.55;15.30;;;16.30;99.90;;;;;;4984302;28;110960;-66
2022/05/19 00:13:31;;;;;;;20.42;13.85;;;16.30;99.90;;;;;;4937004;28;210569;-66
2022/05/19 00:15:58;;;;;;;22.15;14.50;;;16.30;99.90;;;;;;4982161;28;119571;-66
2022/05/19 00:18:24;;;;;;;23.06;14.58;;;16.20;99.90;;;;;;4951810;28;208992;-66
2022/05/19 00:20:51;;;;;;;22.20;13.32;;;16.20;99.90;;;;;;4984106;28;64605;-66
2022/05/19 00:23:17;;;;;;;25.30;16.15;;;16.20;99.90;;;;;;4997623;28;20038;-66
2022/05/19 00:25:43;;;;;;;25.50;16.10;;;16.20;99.90;;;;;;4958678;28;202295;-66
2022/05/19 00:28:09;;;;;;;27.83;17.92;;;16.10;99.90;;;;;;4989464;28;20511;-66
2022/05/19 00:30:36;;;;;;;23.67;16.70;;;16.10;99.90;;;;;;4924922;28;209233;-66
2022/05/19 00:33:04;;;;;;;24.77;17.17;;;16.00;99.90;;;;;;4971556;28;20061;-66
2022/05/19 00:35:30;;;;;;;25.02;16.23;;;16.00;99.90;;;;;;4938365;28;212704;-66
2022/05/19 00:37:56;;;;;;;22.35;16.65;;;15.90;99.90;;;;;;4991322;28;20510;-66
2022/05/19 00:40:24;;;;;;;23.23;15.77;;;15.90;99.90;;;;;;4935660;28;247858;-66
2022/05/19 00:42:51;;;;;;;25.60;14.77;;;15.90;99.90;;;;;;4990982;28;20054;-66
2022/05/19 00:45:26;;;;;;;24.58;15.70;;;15.90;99.90;;;;;;4942552;28;209163;-66
2022/05/19 00:48:05;;;;;;;19.63;15.05;;;15.90;99.90;;;;;;4994460;28;20046;-66
2022/05/19 00:50:45;;;;;;;24.20;15.65;;;15.90;99.90;;;;;;4956554;28;218629;-67
2022/05/19 00:53:32;;;;;;;28.08;18.25;;;15.80;99.90;;;;;;4987984;28;20069;-65
2022/05/19 00:56:33;;;;;;;24.02;17.33;;;15.90;99.90;;;;;;4929573;28;207109;-66
2022/05/19 00:59:08;;;;;;;20.58;14.90;;;15.80;99.90;;;;;;4933233;28;205682;-66
2022/05/19 01:01:38;;;;;;;27.02;17.23;;;15.90;99.90;;;;;;4978069;28;20126;-66
2022/05/19 01:04:23;;;;;;;25.65;17.75;;;15.90;99.90;;;;;;4907982;28;220306;-66
2022/05/19 01:06:53;;;;;;;24.45;16.85;;;15.90;99.90;;;;;;4970988;28;20054;-66
2022/05/19 01:09:19;;;;;;;27.17;18.52;;;15.90;99.90;;;;;;4925050;28;207222;-66
2022/05/19 01:11:51;;;;;;;29.50;20.60;;;15.90;99.90;;;;;;4967394;28;20054;-66
2022/05/19 01:14:17;;;;;;;28.15;21.50;;;15.90;99.90;;;;;;4934067;28;206090;-66
2022/05/19 01:16:44;;;;;;;31.58;20.85;;;15.90;99.90;;;;;;4966769;28;20544;-65
2022/05/19 01:19:32;;;;;;;32.22;23.77;;;15.90;99.90;;;;;;4904564;28;235685;-66
2022/05/19 01:22:15;;;;;;;31.80;22.48;;;15.90;99.90;;;;;;4972120;28;20563;-66
2022/05/19 01:25:14;;;;;;;30.08;22.77;;;15.90;99.90;;;;;;4904255;28;205126;-65
2022/05/19 01:27:40;;;;;;;31.17;24.67;;;15.90;99.90;;;;;;4908258;29;20120;-66
2022/05/19 01:30:10;;;;;;;34.90;23.88;;;15.90;99.90;;;;;;4854496;29;206307;-66
2022/05/19 01:32:36;;;;;;;31.92;24.38;;;15.90;99.90;;;;;;4910865;29;20044;-66
2022/05/19 01:35:03;;;;;;;37.38;25.45;;;15.90;99.90;;;;;;4850761;29;206401;-66
2022/05/19 01:37:29;;;;;;;37.63;28.15;;;15.90;99.90;;;;;;4904455;29;20577;-66
2022/05/19 01:40:03;;;;;;;37.13;27.10;;;15.90;99.90;;;;;;4874927;28;207123;-66
2022/05/19 01:42:59;;;;;;;41.47;30.10;;;15.90;99.90;;;;;;4915726;29;20116;-66
2022/05/19 01:45:47;;;;;;;38.88;29.90;;;15.90;99.90;;;;;;4854353;28;206108;-66
2022/05/19 01:48:19;;;;;;;44.53;32.22;;;15.90;99.90;;;;;;4995197;23;20300;-73
2022/05/19 01:51:10;;;;;;;37.33;28.20;;;15.90;99.90;;;;;;4960212;28;206876;-72
2022/05/19 01:53:49;;;;;;;38.47;29.20;;;15.90;99.90;;;;;;4978265;28;216989;-69
2022/05/19 01:56:39;;;;;;;36.30;27.60;;;15.90;99.90;;;;;;5013453;28;200268;-70
2022/05/19 01:59:20;;;;;;;37.35;28.33;;;15.90;99.90;;;;;;4962323;28;219045;-71
2022/05/19 02:02:35;;;;;;;44.03;31.40;;;15.90;99.90;;;;;;4991615;28;20050;-70
2022/05/19 02:05:24;;;;;;;40.80;29.85;;;15.90;99.90;;;;;;4889356;28;227389;-72
2022/05/19 02:07:54;;;;;;;43.17;31.40;;;15.90;99.90;;;;;;4977667;28;20042;-71
2022/05/19 02:10:36;;;;;;;44.38;32.75;;;15.80;99.90;;;;;;4916393;28;206831;-73
2022/05/19 02:13:04;;;;;;;44.45;32.38;;;15.90;99.90;;;;;;4983526;28;20054;-70
2022/05/19 02:15:34;;;;;;;38.60;30.48;;;15.80;99.90;;;;;;4897098;28;204124;-71
2022/05/19 02:18:01;;;;;;;48.08;34.63;;;15.80;99.90;;;;;;4964318;28;20050;-71
2022/05/19 02:20:29;;;;;;;40.83;32.72;;;15.80;99.90;;;;;;4900243;28;203859;-72
2022/05/19 02:22:55;;;;;;;46.50;35.25;;;15.80;99.90;;;;;;4983179;28;20054;-72
2022/05/19 02:25:34;;;;;;;43.78;33.47;;;15.80;99.90;;;;;;4899199;28;212682;-72
2022/05/19 02:28:05;;;;;;;48.97;37.15;;;15.80;99.90;;;;;;4981751;28;20065;-72
2022/05/19 02:30:32;;;;;;;;;;;15.70;99.90;;;;;;4912586;28;209754;-73
2022/05/19 02:32:59;;;;;;;47.75;36.65;;;15.70;99.90;;;;;;4978362;28;19925;-71
2022/05/19 02:35:27;;;;;;;55.00;38.78;;;15.70;99.90;;;;;;4912465;28;207879;-72
2022/05/19 02:37:54;;;;;;;51.60;38.80;;;15.70;99.90;;;;;;4966999;28;20043;-71
2022/05/19 02:40:22;;;;;;;55.15;39.40;;;15.80;99.90;;;;;;4918550;28;216503;-73
2022/05/19 02:42:49;;;;;;;51.95;42.00;;;15.70;99.90;;;;;;5000370;28;20049;-71
2022/05/19 02:45:17;;;;;;;56.63;41.05;;;15.70;99.90;;;;;;4932331;28;213605;-73
2022/05/19 02:47:44;;;;;;;51.03;39.88;;;15.80;99.90;;;;;;4998528;28;20068;-72
2022/05/19 02:50:11;;;;;;;58.35;40.83;;;15.80;99.90;;;;;;4939304;28;280061;-73
2022/05/19 02:52:38;;;;;;;54.30;40.42;;;15.70;99.90;;;;;;5003309;28;20080;-73
2022/05/19 02:55:05;;;;;;;54.22;40.05;;;15.70;99.90;;;;;;4971839;28;176733;-72
2022/05/19 02:57:31;;;;;;;54.20;41.78;;;15.70;99.90;;;;;;5008951;28;20050;-72
2022/05/19 02:59:58;;;;;;;51.92;40.38;;;15.70;99.90;;;;;;4951526;28;205567;-72
2022/05/19 03:02:24;;;;;;;60.08;44.13;;;15.80;99.90;;;;;;4998947;28;20050;-72
2022/05/19 03:04:51;;;;;;;50.80;41.97;;;15.80;99.90;;;;;;4905628;28;255113;-71
2022/05/19 03:07:17;;;;;;;54.13;40.38;;;15.80;99.90;;;;;;4999769;28;20053;-71
2022/05/19 03:09:45;;;;;;;51.50;39.90;;;15.80;99.90;;;;;;4918562;28;221489;-71
2022/05/19 03:12:12;;;;;;;63.17;46.80;;;15.80;99.90;;;;;;4995288;28;20054;-72
2022/05/19 03:14:39;;;;;;;58.05;46.08;;;15.80;99.90;;;;;;4946762;28;210109;-72
2022/05/19 03:17:07;;;;;;;52.92;44.60;;;15.80;99.90;;;;;;4992683;28;20479;-72
2022/05/19 03:19:34;;;;;;;54.80;45.50;;;15.80;99.90;;;;;;4954643;28;220327;-72
2022/05/19 03:22:00;;;;;;;59.08;46.42;;;15.80;99.90;;;;;;5002892;28;20398;-75
2022/05/19 03:24:26;;;;;;;59.20;46.55;;;15.80;99.90;;;;;;4925566;28;215885;-72
2022/05/19 03:26:52;;;;;;;61.13;47.10;;;15.80;99.90;;;;;;4968434;28;20452;-70
2022/05/19 03:29:19;;;;;;;62.00;43.50;;;15.80;99.90;;;;;;4940711;28;226586;-72
2022/05/19 03:31:46;;;;;;;62.35;45.53;;;15.80;99.90;;;;;;4993108;28;20057;-72
2022/05/19 03:34:17;;;;;;;51.78;40.88;;;15.80;99.90;;;;;;4957332;28;210755;-71
2022/05/19 03:36:47;;;;;;;54.58;44.05;;;15.80;99.90;;;;;;5003991;28;20054;-70
2022/05/19 03:39:13;;;;;;;55.77;42.43;;;15.80;99.90;;;;;;4940261;28;219237;-72
2022/05/19 03:41:39;;;;;;;56.33;43.50;;;15.80;99.90;;;;;;4987603;28;20502;-71
2022/05/19 03:44:05;;;;;;;56.83;46.13;;;15.80;99.90;;;;;;4960330;28;204486;-71
2022/05/19 03:46:31;;;;;;;58.45;46.95;;;15.80;99.90;;;;;;4996145;28;20069;-71
2022/05/19 03:48:58;;;;;;;61.35;47.05;;;15.80;99.90;;;;;;4951377;28;214071;-68
2022/05/19 03:51:28;;;;;;;55.30;45.25;;;15.80;99.90;;;;;;4971654;28;20054;-72
2022/05/19 03:53:56;;;;;;;60.43;45.80;;;15.90;99.90;;;;;;4955344;28;224038;-72
2022/05/19 03:56:23;;;;;;;56.83;44.65;;;15.80;99.90;;;;;;4980534;28;268061;-72
2022/05/19 03:58:50;;;;;;;58.10;44.15;;;15.90;99.90;;;;;;4948257;28;368088;-74
2022/05/19 04:01:19;;;;;;;51.78;43.17;;;15.80;99.90;;;;;;4957497;28;240036;-71
2022/05/19 04:03:45;;;;;;;61.33;46.15;;;15.90;99.90;;;;;;4945766;28;205648;-71
2022/05/19 04:06:13;;;;;;;54.78;44.35;;;15.90;99.90;;;;;;4976174;28;127440;-73
2022/05/19 04:08:39;;;;;;;53.08;41.55;;;15.90;99.90;;;;;;4972793;28;184993;-71
2022/05/19 04:11:06;;;;;;;57.95;47.00;;;15.90;99.90;;;;;;4990226;28;32116;-71
2022/05/19 04:13:32;;;;;;;58.70;46.27;;;15.90;99.90;;;;;;4959522;28;218536;-73
2022/05/19 04:15:58;;;;;;;60.83;46.65;;;15.90;99.90;;;;;;4994991;28;175208;-73
2022/05/19 04:18:25;;;;;;;56.05;44.50;;;15.90;99.90;;;;;;4967747;28;215279;-68
2022/05/19 04:20:51;;;;;;;54.78;45.38;;;15.90;99.90;;;;;;4982196;28;58879;-72
2022/05/19 04:23:18;;;;;;;54.88;45.83;;;15.90;99.90;;;;;;5005260;28;20061;-71
2022/05/19 04:25:44;;;;;;;55.97;46.10;;;15.90;99.90;;;;;;4943415;28;198287;-73
2022/05/19 04:28:11;;;;;;;63.53;47.85;;;16.00;99.90;;;;;;5008394;28;20057;-72
2022/05/19 04:30:37;;;;;;;68.13;52.50;;;16.00;99.90;;;;;;4935266;28;227979;-72
2022/05/19 04:33:04;;;;;;;65.18;48.15;;;16.10;99.90;;;;;;5009680;28;20430;-71
2022/05/19 04:35:31;;;;;;;64.63;49.15;;;16.20;99.90;;;;;;4968449;28;215135;-71
2022/05/19 04:38:00;;;;;;;63.10;47.45;;;16.20;99.90;;;;;;5008427;28;20057;-71
2022/05/19 04:40:26;;;;;;;61.88;46.15;;;16.30;99.90;;;;;;4954228;28;214071;-71
2022/05/19 04:42:55;;;;;;;59.80;46.85;;;16.40;99.90;;;;;;5007432;28;20034;-72
2022/05/19 04:45:22;;;;;;;59.30;47.60;;;16.50;99.90;;;;;;4938768;28;230918;-71
2022/05/19 04:47:48;;;;;;;56.70;43.67;;;16.60;99.90;;;;;;5002164;28;20046;-71
2022/05/19 04:50:14;;;;;;;61.58;46.05;;;16.70;99.90;;;;;;4925592;28;214012;-71
2022/05/19 04:52:40;;;;;;;52.00;41.75;;;16.80;99.90;;;;;;5005953;28;20042;-71
2022/05/19 04:55:08;;;;;;;59.22;44.95;;;16.90;99.90;;;;;;4947709;28;211623;-72
2022/05/19 04:57:35;;;;;;;54.03;44.42;;;16.90;99.90;;;;;;5006920;28;20064;-71
2022/05/19 05:00:03;;;;;;;52.58;42.08;;;17.00;99.90;;;;;;4937239;28;239220;-71
2022/05/19 05:02:30;;;;;;;55.13;42.10;;;17.00;99.90;;;;;;5007027;28;20088;-71
2022/05/19 05:04:58;;;;;;;48.28;40.03;;;17.10;99.90;;;;;;4926459;28;227073;-71
2022/05/19 05:07:24;;;;;;;53.72;41.30;;;17.10;99.90;;;;;;5005187;28;20058;-71
2022/05/19 05:09:50;;;;;;;51.53;39.17;;;17.20;99.90;;;;;;4926756;28;211914;-71
2022/05/19 05:12:16;;;;;;;47.40;38.67;;;17.30;99.90;;;;;;4990189;28;20061;-71
2022/05/19 05:14:43;;;;;;;46.75;38.42;;;17.40;99.90;;;;;;4947692;28;210134;-71
2022/05/19 05:17:09;;;;;;;47.58;38.40;;;17.50;99.90;;;;;;5006643;28;20053;-71
2022/05/19 05:19:35;;;;;;;46.63;37.72;;;17.50;99.90;;;;;;4929709;28;197055;-71
2022/05/19 05:22:01;;;;;;;43.25;37.05;;;17.70;99.90;;;;;;4997087;28;20084;-71
2022/05/19 05:24:28;;;;;;;44.95;35.80;;;17.80;99.90;;;;;;4945377;28;211162;-72
2022/05/19 05:26:54;;;;;;;45.33;34.85;;;17.90;99.90;;;;;;5003420;28;20066;-71
2022/05/19 05:29:20;;;;;;;44.20;34.90;;;18.00;99.90;;;;;;4926075;28;240796;-71
2022/05/19 05:31:47;;;;;;;40.95;32.90;;;18.10;99.90;;;;;;4999229;28;20070;-71
2022/05/19 05:34:13;;;;;;;35.95;29.83;;;18.20;99.90;;;;;;4940630;28;212272;-71
2022/05/19 05:36:39;;;;;;;36.40;28.10;;;18.40;99.90;;;;;;4978443;28;20046;-73
2022/05/19 05:39:05;;;;;;;33.13;27.13;;;18.50;99.90;;;;;;4933810;28;210841;-72
2022/05/19 05:41:31;;;;;;;35.88;26.15;;;18.60;99.90;;;;;;5003345;28;20053;-71
2022/05/19 05:43:58;;;;;;;32.70;25.65;;;18.80;99.90;;;;;;4950449;28;242909;-72
2022/05/19 05:46:24;;;;;;;32.42;23.73;;;18.90;99.90;;;;;;4989699;28;20065;-72
2022/05/19 05:48:51;;;;;;;29.30;22.55;;;19.10;99.90;;;;;;4957142;28;221170;-72
2022/05/19 05:51:17;;;;;;;28.95;21.83;;;19.20;99.90;;;;;;4987600;28;118996;-71
2022/05/19 05:53:45;;;;;;;28.08;21.98;;;19.30;99.90;;;;;;4954496;28;217541;-72
2022/05/19 05:56:14;;;;;;;29.90;21.40;;;19.40;99.90;;;;;;4985797;28;20581;-70
2022/05/19 05:58:41;;;;;;;28.00;20.50;;;19.40;99.90;;;;;;4968612;28;217940;-73
2022/05/19 06:01:10;;;;;;;26.10;19.42;;;19.50;99.90;;;;;;4986495;28;219914;-71
2022/05/19 06:03:36;;;;;;;23.90;18.17;;;19.50;99.90;;;;;;4957124;28;210710;-70
2022/05/19 06:06:03;;;;;;;22.15;17.80;;;19.70;99.90;;;;;;4985089;28;209219;-72
2022/05/19 06:08:30;;;;;;;27.05;17.42;;;19.70;99.90;;;;;;4963921;28;209700;-71
2022/05/19 06:10:56;;;;;;;30.38;17.55;;;19.70;99.90;;;;;;4996345;28;39984;-70
2022/05/19 06:13:24;;;;;;;22.77;16.88;;;19.80;99.90;;;;;;4982496;28;216549;-68
2022/05/19 06:15:50;;;;;;;24.27;16.55;;;19.80;99.90;;;;;;4965038;28;210261;-70
2022/05/19 06:18:16;;;;;;;24.92;16.45;;;19.90;99.90;;;;;;5010105;28;20050;-70
2022/05/19 06:20:42;;;;;;;22.42;16.17;;;19.90;99.90;;;;;;4928299;28;208607;-71
2022/05/19 06:23:09;;;;;;;24.52;16.60;;;20.10;99.90;;;;;;5005171;28;20057;-71
2022/05/19 06:25:35;;;;;;;27.58;17.98;;;20.20;99.90;;;;;;4933977;28;210590;-70
2022/05/19 06:28:02;;;;;;;24.75;17.55;;;20.10;99.90;;;;;;4981582;28;20054;-70
2022/05/19 06:30:30;;;;;;;26.52;17.63;;;20.00;99.90;;;;;;4922712;28;216966;-71
2022/05/19 06:32:57;;;;;;;24.98;17.48;;;20.00;99.90;;;;;;5006664;28;20054;-71
2022/05/19 06:35:27;;;;;;;23.75;17.75;;;20.10;99.90;;;;;;4964678;28;210551;-72
2022/05/19 06:37:54;;;;;;;23.52;17.92;;;20.10;99.90;;;;;;5006678;28;20136;-71
2022/05/19 06:40:21;;;;;;;23.58;17.13;;;20.00;99.90;;;;;;4955392;28;210250;-70
2022/05/19 06:42:48;;;;;;;25.23;16.52;;;20.10;99.90;;;;;;5011105;28;20057;-71
2022/05/19 06:45:17;;;;;;;23.08;15.55;;;20.10;99.90;;;;;;4939841;28;213937;-71
2022/05/19 06:47:43;;;;;;;22.35;17.10;;;20.00;99.90;;;;;;5006813;28;20364;-72
2022/05/19 06:50:11;;;;;;;24.70;16.55;;;20.00;99.90;;;;;;4937663;28;208207;-71
2022/05/19 06:52:49;;;;;;;21.98;16.40;;;19.90;99.90;;;;;;5000784;28;20041;-71
2022/05/19 06:55:18;;;;;;;25.45;17.88;;;19.90;99.90;;;;;;4945417;28;212957;-71
2022/05/19 06:57:45;;;;;;;28.23;18.60;;;19.80;99.90;;;;;;5006097;28;20061;-72
2022/05/19 07:00:16;;;;;;;27.38;17.92;;;19.80;99.90;;;;;;4946087;28;212756;-73
2022/05/19 07:02:50;;;;;;;25.10;18.23;;;19.80;99.90;;;;;;4984225;28;20065;-73
2022/05/19 07:05:18;;;;;;;23.98;18.42;;;19.80;99.90;;;;;;4943330;28;211773;-73
2022/05/19 07:07:46;;;;;;;25.95;19.25;;;19.80;99.90;;;;;;4995090;28;20484;-72
2022/05/19 07:10:18;;;;;;;29.13;19.42;;;19.70;99.90;;;;;;4928821;28;206419;-72
2022/05/19 07:12:44;;;;;;;24.60;19.38;;;19.60;99.90;;;;;;5009949;28;20041;-72
2022/05/19 07:15:15;;;;;;;26.10;19.80;;;19.50;99.90;;;;;;4951115;28;210273;-73
2022/05/19 07:17:41;;;;;;;;;;;19.40;99.90;;;;;;5003657;28;20053;-73
2022/05/19 07:22:53;;;;;;;27.30;22.20;;;19.20;99.90;;;;;;4998555;28;20122;-72
2022/05/19 07:25:21;;;;;;;31.65;23.40;;;19.10;99.90;;;;;;4935183;28;183715;-72
2022/05/19 07:27:48;;;;;;;29.13;23.63;;;19.00;99.90;;;;;;4994550;28;20065;-72
2022/05/19 07:30:14;;;;;;;29.27;22.52;;;19.00;99.90;;;;;;4936220;28;210092;-71
2022/05/19 07:32:41;;;;;;;28.92;22.90;;;19.00;99.90;;;;;;5003008;28;20050;-72
2022/05/19 07:35:10;;;;;;;28.02;22.38;;;19.00;99.90;;;;;;4946826;28;211634;-71
2022/05/19 07:37:36;;;;;;;29.27;21.92;;;19.00;99.90;;;;;;5007630;28;20049;-72
2022/05/19 07:40:04;;;;;;;30.67;21.85;;;19.00;99.90;;;;;;4937905;28;211961;-71
2022/05/19 07:42:31;;;;;;;31.83;22.58;;;19.00;99.90;;;;;;4992361;28;20509;-71
2022/05/19 07:44:57;;;;;;;33.10;23.35;;;19.10;99.90;;;;;;4920229;28;214924;-72
2022/05/19 07:47:23;;;;;;;30.92;22.60;;;19.10;99.90;;;;;;5005756;28;20482;-73
2022/05/19 07:49:54;;;;;;;31.75;23.42;;;19.10;99.90;;;;;;4945488;28;215580;-72
2022/05/19 07:52:21;;;;;;;30.35;22.92;;;19.20;99.90;;;;;;4996579;28;20423;-72
2022/05/19 07:54:47;;;;;;;27.63;21.13;;;19.30;99.90;;;;;;4947839;28;206341;-72
2022/05/19 07:57:13;;;;;;;31.48;23.17;;;19.40;99.90;;;;;;5000331;28;20066;-73
2022/05/19 07:59:39;;;;;;;30.90;24.25;;;19.40;99.90;;;;;;4934284;28;211258;-73
2022/05/19 08:02:07;;;;;;;29.38;23.70;;;19.50;99.90;;;;;;5006488;28;20407;-73
2022/05/19 08:04:33;;;;;;;30.17;23.98;;;19.70;99.90;;;;;;4920842;28;212088;-73
2022/05/19 08:07:01;;;;;;;28.95;23.02;;;19.70;99.90;;;;;;4988750;28;20408;-73
2022/05/19 08:15:34;;;;;;;28.80;23.00;;;20.00;99.90;;;;;;4952563;28;242611;-72
2022/05/19 08:18:08;;;;;;;28.23;21.77;;;20.10;99.90;;;;;;5003841;28;20061;-73
2022/05/19 08:20:36;;;;;;;26.95;21.65;;;20.20;99.90;;;;;;4913338;28;212685;-72
2022/05/19 08:23:03;;;;;;;27.40;22.75;;;20.20;99.90;;;;;;5006493;28;20407;-72
2022/05/19 08:25:29;;;;;;;30.27;22.73;;;20.30;99.90;;;;;;4950962;28;209429;-74
2022/05/19 08:27:57;;;;;;;29.13;22.52;;;20.30;99.90;;;;;;5019774;28;20064;-72
2022/05/19 08:30:24;;;;;;;30.92;22.50;;;20.40;99.90;;;;;;4968317;28;214893;-72
2022/05/19 08:32:50;;;;;;;27.92;23.83;;;20.40;99.90;;;;;;5007991;28;20514;-70
2022/05/19 08:35:17;;;;;;;29.63;23.25;;;20.50;99.90;;;;;;4923141;28;210265;-71
2022/05/19 08:37:43;;;;;;;31.17;23.23;;;20.60;99.90;;;;;;4999730;28;20066;-71
2022/05/19 08:40:09;;;;;;;31.85;22.85;;;20.70;99.90;;;;;;4940884;28;226360;-71
2022/05/19 08:42:41;;;;;;;29.45;22.45;;;20.70;99.90;;;;;;5003360;28;20057;-71
2022/05/19 08:45:31;;;;;;;27.73;21.17;;;20.80;99.90;;;;;;4944640;28;210707;-72
2022/05/19 08:48:19;;;;;;;25.10;20.63;;;20.90;99.90;;;;;;5006385;28;20484;-72
2022/05/19 08:50:58;;;;;;;25.08;20.45;;;21.00;99.90;;;;;;4941136;28;204136;-71
2022/05/19 08:53:29;;;;;;;26.63;20.85;;;21.20;99.90;;;;;;4978288;28;210167;-71
2022/05/19 08:56:01;;;;;;;24.73;16.98;;;21.40;99.90;;;;;;4979118;28;205200;-72
2022/05/19 08:58:47;;;;;;;25.40;16.48;;;21.60;99.90;;;;;;4960403;28;210789;-72
2022/05/19 09:01:29;;;;;;;23.75;15.52;;;21.80;99.90;;;;;;4978086;28;161384;-72
2022/05/19 09:04:10;;;;;;;20.67;14.88;;;21.90;99.90;;;;;;4965620;28;215055;-72
2022/05/19 09:10:26;;;;;;;22.77;15.30;;;22.30;99.90;;;;;;4947825;28;230788;-73
2022/05/19 09:13:03;;;;;;;19.95;14.02;;;22.60;99.90;;;;;;5008296;28;20069;-72
2022/05/19 09:15:30;;;;;;;18.77;14.35;;;22.70;99.90;;;;;;4919488;28;244843;-74
2022/05/19 09:17:56;;;;;;;22.27;14.38;;;22.90;99.90;;;;;;5005578;28;20057;-71
2022/05/19 09:20:31;;;;;;;20.05;13.50;;;23.10;99.90;;;;;;4916633;28;211360;-72
2022/05/19 09:23:04;;;;;;;20.17;13.20;;;23.30;99.90;;;;;;5017681;28;20058;-73
2022/05/19 09:25:33;;;;;;;19.20;13.35;;;23.40;99.90;;;;;;4925974;28;240320;-72
2022/05/19 09:28:01;;;;;;;17.38;12.18;;;23.60;99.90;;;;;;5022548;28;20064;-71
2022/05/19 09:30:41;;;;;;;18.88;12.40;;;23.80;99.90;;;;;;4945844;28;205844;-71
2022/05/19 09:33:15;;;;;;;18.08;12.80;;;24.10;99.90;;;;;;5011596;28;20062;-72
2022/05/19 09:35:49;;;;;;;19.77;12.40;;;24.30;99.90;;;;;;4929456;28;216025;-72
2022/05/19 09:38:26;;;;;;;16.98;11.98;;;24.40;99.90;;;;;;5007424;28;20054;-73
2022/05/19 09:40:59;;;;;;;17.55;11.20;;;24.60;99.90;;;;;;4930479;28;206474;-74
2022/05/19 09:43:27;;;;;;;15.70;10.77;;;24.80;99.90;;;;;;4984542;28;216919;-72
2022/05/19 09:46:09;;;;;;;17.75;11.23;;;25.00;99.90;;;;;;4968885;28;206394;-72
2022/05/19 09:48:41;;;;;;;15.30;10.10;;;25.10;99.90;;;;;;4963499;28;215011;-72
2022/05/19 09:51:17;;;;;;;14.52;10.07;;;25.10;99.90;;;;;;4993059;28;20809;-72
2022/05/19 09:53:55;;;;;;;16.45;10.60;;;25.30;99.90;;;;;;4963726;28;208808;-74
2022/05/19 09:56:24;;;;;;;14.35;9.93;;;25.40;99.90;;;;;;4987818;28;144326;-72
2022/05/19 09:59:03;;;;;;;13.10;9.02;;;25.50;99.90;;;;;;4972448;28;216010;-72
2022/05/19 10:01:34;;;;;;;12.23;7.78;;;25.50;99.90;;;;;;4997345;28;20042;-74
2022/05/19 10:04:06;;;;;;;14.35;7.97;;;25.70;99.90;;;;;;4939562;28;207491;-71
2022/05/19 10:06:46;;;;;;;14.30;8.18;;;25.90;99.90;;;;;;4989189;28;20054;-72
2022/05/19 10:09:18;;;;;;;16.67;7.70;;;26.20;99.90;;;;;;4939671;28;207775;-72
2022/05/19 10:11:54;;;;;;;12.90;7.22;;;26.40;99.90;;;;;;4980108;28;20054;-71
2022/05/19 10:14:29;;;;;;;13.15;6.30;;;26.80;99.90;;;;;;4961985;28;204795;-70
2022/05/19 10:17:07;;;;;;;13.88;6.85;;;27.10;99.90;;;;;;4988820;28;20045;-71
2022/05/19 10:20:04;;;;;;;13.18;6.13;;;27.50;99.90;;;;;;4937802;28;209854;-71
2022/05/19 10:22:51;;;;;;;9.95;4.88;;;27.90;99.90;;;;;;4972584;28;20065;-72
2022/05/19 10:25:35;;;;;;;12.45;5.97;;;28.30;98.30;;;;;;4905165;28;218398;-71
2022/05/19 10:31:43;;;;;;;12.32;5.60;;;28.80;98.90;;;;;;4918114;28;206030;-71
2022/05/19 10:34:15;;;;;;;12.98;6.38;;;29.00;98.30;;;;;;4867056;28;253922;-71
2022/05/19 10:37:01;;;;;;;10.23;6.53;;;29.20;97.00;;;;;;4946228;28;20532;-71
2022/05/19 10:39:27;;;;;;;11.40;6.20;;;28.90;95.20;;;;;;4864784;29;206771;-74
2022/05/19 10:42:02;;;;;;;10.82;6.22;;;28.70;96.40;;;;;;4950989;28;20205;-71
2022/05/19 10:44:46;;;;;;;11.30;6.82;;;28.90;95.60;;;;;;4882578;29;215152;-71
2022/05/19 10:47:18;;;;;;;14.23;7.30;;;28.70;95.40;;;;;;4943063;28;20055;-73
2022/05/19 10:49:53;;;;;;;12.48;7.47;;;28.60;95.10;;;;;;4890570;28;214043;-71
2022/05/19 10:52:19;;;;;;;12.43;7.70;;;28.40;95.60;;;;;;4945053;28;20055;-73
2022/05/19 10:54:47;;;;;;;11.38;7.15;;;28.20;95.20;;;;;;4880735;28;207364;-75
2022/05/19 10:57:56;;;;;;;12.48;7.15;;;28.20;95.50;;;;;;4934247;28;20055;-75
2022/05/19 11:00:28;;;;;;;14.85;8.27;;;28.20;96.00;;;;;;4863083;28;211025;-71
2022/05/19 11:03:07;;;;;;;13.07;8.60;;;28.30;96.00;;;;;;4963793;28;20156;-71
2022/05/19 11:06:08;;;;;;;15.27;9.35;;;28.20;95.60;;;;;;4860619;28;209194;-71
2022/05/19 11:09:07;;;;;;;16.63;10.25;;;28.20;95.90;;;;;;4923182;28;138663;-71
2022/05/19 11:11:45;;;;;;;12.87;9.37;;;28.40;95.60;;;;;;4986935;28;20392;-72
2022/05/19 11:14:29;;;;;;;14.27;9.07;;;28.60;96.10;;;;;;4958647;28;213791;-72
2022/05/19 11:17:37;;;;;;;13.45;9.05;;;29.10;95.70;;;;;;4998507;28;20049;-72
2022/05/19 11:20:24;;;;;;;14.48;9.05;;;29.70;93.80;;;;;;4936713;28;213981;-71
2022/05/19 11:22:53;;;;;;;15.00;9.57;;;30.10;94.00;;;;;;5005790;28;20494;-72
2022/05/19 11:28:59;;;;;;;16.40;8.48;;;30.80;92.30;;;;;;4956618;28;218338;-73
2022/05/19 11:31:45;;;;;;;14.38;8.82;;;31.10;92.80;;;;;;4911034;28;20523;-70
2022/05/19 11:34:17;;;;;;;13.73;8.02;;;31.40;90.90;;;;;;4896137;28;162137;-71
2022/05/19 11:37:05;;;;;;;12.25;6.78;;;31.60;91.10;;;;;;4964497;28;20050;-71
2022/05/19 11:40:01;;;;;;;11.30;6.50;;;31.70;84.40;;;;;;4922653;28;209913;-72
2022/05/19 11:42:53;;;;;;;17.95;7.40;;;31.70;86.40;;;;;;4938436;28;20070;-72
2022/05/19 11:45:39;;;;;;;12.98;7.97;;;31.60;81.40;;;;;;4873708;28;211951;-72
2022/05/19 11:57:45;;;;;;;12.68;8.60;;;30.70;82.70;;;;;;4921755;28;20157;-72
2022/05/19 12:00:18;;;;;;;12.85;8.07;;;30.40;85.20;;;;;;4884760;28;169881;-73
2022/05/19 12:02:50;;;;;;;18.52;8.00;;;30.40;86.60;;;;;;4943833;28;20405;-74
2022/05/19 12:05:38;;;;;;;12.07;8.05;;;30.40;86.50;;;;;;4843902;29;211843;-74
2022/05/19 12:08:20;;;;;;;14.93;8.85;;;30.40;86.90;;;;;;4939380;28;20062;-71
2022/05/19 12:11:20;;;;;;;14.48;7.63;;;30.20;86.20;;;;;;4891605;28;210623;-71
2022/05/19 12:13:49;;;;;;;13.25;7.60;;;30.00;88.60;;;;;;4922404;28;207957;-73
2022/05/19 12:16:24;;;;;;;12.30;7.45;;;29.80;88.50;;;;;;4938590;28;274746;-72
2022/05/19 12:19:08;;;;;;;10.98;6.20;;;29.70;88.40;;;;;;4918156;28;205376;-72
2022/05/19 12:21:46;;;;;;;11.32;4.93;;;29.40;87.00;;;;;;4972310;28;20053;-72
2022/05/19 12:24:14;;;;;;;9.60;4.60;;;29.10;86.50;;;;;;4951173;28;219411;-71
2022/05/19 12:27:01;;;;;;;13.68;4.60;;;28.40;87.60;;;;;;5003496;28;20411;-70
2022/05/19 12:29:40;;;;;;;10.52;3.80;;;28.00;88.70;;;;;;4949181;28;213321;-72
2022/05/19 12:32:23;;;;;;;9.93;3.70;;;27.70;89.50;;;;;;4998028;28;20053;-71
2022/05/19 12:34:56;;;;;;;9.35;3.22;;;27.50;88.90;;;;;;4952681;28;226511;-72
2022/05/19 12:37:43;;;;;;;8.63;3.10;;;27.20;90.10;;;;;;5007862;28;20415;-70
2022/05/19 12:40:21;;;;;;;8.85;3.08;;;27.00;90.70;;;;;;4934546;28;210530;-72
2022/05/19 12:42:49;;;;;;;8.18;3.03;;;26.80;91.00;;;;;;5003731;28;20041;-71
2022/05/19 12:45:20;;;;;;;9.23;2.70;;;26.70;91.40;;;;;;4931055;28;206899;-71
2022/05/19 12:47:59;;;;;;;10.90;3.30;;;26.60;91.80;;;;;;5000326;28;20045;-71
2022/05/19 12:50:45;;;;;;;17.48;3.40;;;26.40;92.60;;;;;;4933575;28;212189;-73
2022/05/19 12:53:24;;;;;;;9.02;3.60;;;26.20;93.40;;;;;;5005581;28;20050;-72
2022/05/19 12:55:56;;;;;;;8.77;3.35;;;25.80;94.90;;;;;;4941120;28;250204;-72
2022/05/19 12:58:37;;;;;;;8.48;3.30;;;25.40;96.70;;;;;;4982255;28;218563;-71
2022/05/19 13:01:23;;;;;;;7.90;3.20;;;25.10;98.50;;;;;;4973855;28;207008;-72
2022/05/19 13:04:07;;;;;;;10.07;3.50;;;24.70;99.90;;;;;;4958786;28;212670;-73
2022/05/19 13:06:38;;;;;;;8.88;3.50;;;24.40;99.90;;;;;;4951051;28;111176;-75
2022/05/19 13:09:08;;;;;;;19.85;6.03;;;24.10;99.90;;;;;;4943313;28;240883;-72
2022/05/19 13:11:39;;;;;;;16.73;6.38;;;23.60;99.90;;;;;;4991708;28;20061;-73
2022/05/19 13:14:11;;;;;;;15.70;5.93;;;22.40;99.90;;;;;;4956864;28;212823;-72
2022/05/19 13:16:41;;;;;;;15.80;6.18;;;21.50;99.90;;;;;;4994471;28;20408;-72
2022/05/19 13:19:28;;;;;;;24.90;5.88;;;20.90;99.90;;;;;;4930421;28;230849;-71